Time;durP1;ratioP1;P1;durP2;ratioP2;P2;SDS_P1;SDS_P2;PMS_P1;PMS_P2;Temp;Humidity;BMP_temperature;BMP_pressure;BME280_temperature;BME280_humidity;BME280_pressure;Samples;Min_cycle;Max_cycle;Signal;HPM_P1;HPM_P2
2022/01/26 00:00:58;;;;;;;34.55;10.70;;;4.40;99.90;;;4.31;82.55;102674.22;5167410;28;20054;-70
2022/01/26 00:06:24;;;;;;;33.13;11.38;;;4.50;99.90;;;4.30;82.63;102688.81;5166777;28;20054;-70
2022/01/26 00:08:55;;;;;;;32.08;11.00;;;4.50;99.90;;;4.27;82.67;102677.28;5166863;28;20054;-71
2022/01/26 00:11:31;;;;;;;38.85;11.30;;;4.40;99.90;;;4.30;83.16;102680.13;5166811;28;20046;-70
2022/01/26 00:14:09;;;;;;;38.30;12.18;;;4.50;99.90;;;4.31;83.06;102679.38;5164970;28;20054;-71
2022/01/26 00:16:43;;;;;;;48.03;12.57;;;4.50;99.90;;;4.34;83.94;102675.38;5166457;28;20046;-71
2022/01/26 00:19:21;;;;;;;34.60;11.13;;;4.50;99.90;;;4.36;84.31;102667.78;5165845;28;20058;-71
2022/01/26 00:21:56;;;;;;;40.13;11.85;;;4.50;99.90;;;4.38;84.71;102668.84;5165939;28;20043;-71
2022/01/26 00:24:53;;;;;;;44.30;12.68;;;4.50;99.90;;;4.38;85.10;102661.09;5164993;28;20082;-71
2022/01/26 00:27:35;;;;;;;36.50;11.40;;;4.60;99.90;;;4.37;85.10;102667.03;5165646;28;20046;-70
2022/01/26 00:34:18;;;;;;;36.03;10.57;;;4.50;99.90;;;4.42;85.38;102667.41;5165892;28;20050;-70
2022/01/26 00:38:50;;;;;;;41.30;10.95;;;4.60;99.90;;;4.44;86.02;102650.41;5165217;28;20401;-71
2022/01/26 00:41:33;;;;;;;45.50;12.20;;;4.60;99.90;;;4.44;86.17;102653.88;5165896;28;20042;-71
2022/01/26 00:44:07;;;;;;;45.72;13.27;;;4.60;99.90;;;4.41;86.18;102651.00;5165224;28;20462;-71
2022/01/26 00:46:46;;;;;;;33.00;10.38;;;4.60;99.90;;;4.42;86.24;102658.00;5164608;28;20072;-71
2022/01/26 00:49:21;;;;;;;44.65;11.68;;;4.50;99.90;;;4.41;86.75;102661.34;5165008;28;20046;-71
2022/01/26 00:51:54;;;;;;;37.63;10.68;;;4.60;99.90;;;4.43;86.84;102664.06;5165735;28;20105;-71
2022/01/26 00:54:27;;;;;;;39.08;11.65;;;4.60;99.90;;;4.39;86.96;102662.91;5164596;28;20057;-71
2022/01/26 00:57:00;;;;;;;39.38;12.77;;;4.60;99.90;;;4.36;87.15;102662.59;5164543;28;20050;-70
2022/01/26 00:59:32;;;;;;;39.45;11.18;;;4.50;99.90;;;4.36;87.36;102673.84;5165285;28;20046;-71
2022/01/26 01:02:04;;;;;;;40.47;11.38;;;4.50;99.90;;;4.36;87.51;102672.94;5164507;28;20054;-71
2022/01/26 01:04:36;;;;;;;39.92;10.82;;;4.50;99.90;;;4.34;87.66;102679.66;5164301;28;20050;-72
2022/01/26 01:07:15;;;;;;;39.20;11.85;;;4.50;99.90;;;4.30;87.89;102678.47;5164121;28;20047;-71
2022/01/26 01:09:49;;;;;;;38.30;11.90;;;4.50;99.90;;;4.28;88.02;102669.66;5164786;28;20057;-69
2022/01/26 01:12:21;;;;;;;37.15;11.52;;;4.50;99.90;;;4.28;88.01;102668.75;5165018;28;20149;-70
2022/01/26 01:14:53;;;;;;;42.28;11.30;;;4.50;99.90;;;4.29;87.81;102665.41;5164401;28;20052;-71
2022/01/26 01:17:35;;;;;;;37.38;11.52;;;4.40;99.90;;;4.27;87.76;102667.88;5164657;28;20058;-71
2022/01/26 01:20:15;;;;;;;;;;;4.40;99.90;;;4.24;87.44;102671.88;5165126;28;20069;-70
2022/01/26 01:22:57;;;;;;;34.78;11.75;;;4.40;99.90;;;4.19;87.28;102670.53;5164223;28;19922;-70
2022/01/26 01:26:07;;;;;;;40.70;11.60;;;4.40;99.90;;;4.15;87.16;102668.44;5163721;28;20101;-71
2022/01/26 01:28:55;;;;;;;38.22;12.25;;;4.40;99.90;;;4.14;87.12;102664.94;5164902;28;20046;-70
2022/01/26 01:31:41;;;;;;;39.92;11.73;;;4.40;99.90;;;4.16;86.85;102667.66;5163788;28;20413;-71
2022/01/26 01:34:16;;;;;;;38.17;10.95;;;4.40;99.90;;;4.17;86.38;102664.31;5164147;28;20050;-69
2022/01/26 01:36:51;;;;;;;40.83;11.73;;;4.40;99.90;;;4.17;85.97;102664.31;5164540;28;20092;-71
2022/01/26 01:39:23;;;;;;;35.22;11.90;;;4.40;99.90;;;4.15;85.73;102661.59;5164308;28;20046;-70
2022/01/26 01:41:57;;;;;;;38.58;11.65;;;4.40;99.90;;;4.17;85.29;102659.16;5163738;28;20491;-70
2022/01/26 01:44:29;;;;;;;37.75;11.55;;;4.40;99.90;;;4.19;85.05;102652.47;5164691;28;20048;-70
2022/01/26 01:47:01;;;;;;;37.00;11.73;;;4.40;99.90;;;4.21;84.78;102658.66;5162385;28;20054;-70
2022/01/26 01:49:33;;;;;;;35.42;11.70;;;4.40;99.90;;;4.22;84.53;102658.78;5164220;28;20042;-71
2022/01/26 01:52:12;;;;;;;39.53;12.20;;;4.40;99.90;;;4.21;84.50;102661.25;5163034;28;20042;-71
2022/01/26 01:54:50;;;;;;;38.15;10.95;;;4.40;99.90;;;4.19;84.28;102667.97;5163477;28;20050;-71
2022/01/26 01:57:24;;;;;;;33.88;11.25;;;4.40;99.90;;;4.17;84.57;102675.53;5163028;28;20050;-70
2022/01/26 01:59:56;;;;;;;37.67;11.07;;;4.30;99.90;;;4.14;84.58;102669.22;5163008;28;20050;-70
2022/01/26 02:02:28;;;;;;;31.20;10.70;;;4.30;99.90;;;4.17;84.06;102669.47;5163920;28;20046;-71
2022/01/26 02:05:00;;;;;;;34.63;11.32;;;4.30;99.90;;;4.10;83.70;102675.75;5163924;28;20412;-70
2022/01/26 02:07:32;;;;;;;37.28;11.13;;;4.30;99.90;;;4.02;83.86;102675.06;5163209;28;20567;-70
2022/01/26 02:10:05;;;;;;;31.15;9.60;;;4.30;99.90;;;3.98;83.82;102678.16;5162430;28;20058;-70
2022/01/26 02:12:44;;;;;;;36.60;10.80;;;4.20;99.90;;;3.98;83.95;102673.00;5163118;28;20058;-72
2022/01/26 02:15:20;;;;;;;35.45;10.48;;;4.30;99.90;;;4.00;84.33;102666.28;5162657;28;20074;-70
2022/01/26 02:18:17;;;;;;;35.78;11.07;;;4.20;99.90;;;3.98;84.45;102666.94;5163511;28;20042;-70
2022/01/26 02:49:38;;;;;;;33.60;10.30;;;4.10;99.90;;;3.90;84.29;102653.28;5163988;28;20426;-73
2022/01/26 02:52:25;;;;;;;33.75;9.65;;;4.10;99.90;;;3.94;84.48;102650.25;5164304;28;20496;-70
2022/01/26 02:55:21;;;;;;;35.47;10.07;;;4.10;99.90;;;3.94;84.38;102646.75;5163618;28;20408;-71
2022/01/26 02:58:22;;;;;;;37.65;10.63;;;4.20;99.90;;;3.95;84.20;102652.06;5163834;28;20140;-71
2022/01/26 03:01:08;;;;;;;38.08;10.60;;;4.20;99.90;;;3.93;84.34;102652.69;5163930;28;20205;-70
2022/01/26 03:03:43;;;;;;;39.08;10.88;;;4.10;99.90;;;3.94;84.33;102647.66;5164013;28;20078;-71
2022/01/26 03:06:21;;;;;;;35.30;10.95;;;4.10;99.90;;;3.93;84.44;102638.13;5163501;28;20483;-71
2022/01/26 03:08:59;;;;;;;39.22;11.80;;;4.10;99.90;;;3.96;84.42;102640.94;5164249;28;20069;-71
2022/01/26 03:11:36;;;;;;;38.55;11.85;;;4.20;99.90;;;4.02;84.40;102636.34;5163902;28;20046;-71
2022/01/26 03:14:16;;;;;;;40.55;12.80;;;4.20;99.90;;;4.06;84.58;102635.88;5163396;28;20046;-71
2022/01/26 03:16:54;;;;;;;43.35;11.73;;;4.20;99.90;;;4.10;84.67;102624.13;5163819;28;20488;-70
2022/01/26 03:19:34;;;;;;;38.75;11.90;;;4.30;99.90;;;4.13;84.28;102620.94;5163778;28;20503;-71
2022/01/26 03:28:20;;;;;;;37.78;13.63;;;4.30;99.90;;;4.15;83.96;102601.31;5163820;28;20050;-70
2022/01/26 03:31:26;;;;;;;41.92;14.20;;;4.30;99.90;;;4.07;83.74;102609.28;5164103;28;20140;-71
2022/01/26 03:34:00;;;;;;;40.72;13.88;;;4.30;99.90;;;4.01;84.03;102611.31;5163065;28;20062;-70
2022/01/26 03:36:42;;;;;;;48.42;13.40;;;4.20;99.90;;;4.02;84.19;102610.53;5163542;28;20193;-70
2022/01/26 03:39:18;;;;;;;45.55;13.88;;;4.20;99.90;;;4.02;84.05;102613.13;5163643;28;20065;-70
2022/01/26 03:41:55;;;;;;;44.55;13.52;;;4.20;99.90;;;4.00;84.20;102606.94;5163617;28;20069;-71
2022/01/26 03:44:28;;;;;;;41.55;13.02;;;4.20;99.90;;;4.03;83.91;102604.59;5163213;28;20050;-71
2022/01/26 03:47:01;;;;;;;45.25;13.80;;;4.20;99.90;;;4.04;83.91;102603.88;5164131;28;20046;-70
2022/01/26 03:49:34;;;;;;;46.10;13.88;;;4.20;99.90;;;4.03;83.67;102614.94;5167253;28;20046;-71
2022/01/26 03:52:07;;;;;;;43.80;13.68;;;4.20;99.90;;;4.03;83.72;102620.09;5167774;28;20054;-70
2022/01/26 03:54:40;;;;;;;48.08;14.38;;;4.20;99.90;;;4.03;83.63;102604.59;5166925;28;20053;-71
2022/01/26 03:57:12;;;;;;;42.20;13.35;;;4.20;99.90;;;4.00;83.32;102598.28;5167148;28;20480;-70
2022/01/26 03:59:45;;;;;;;49.17;13.93;;;4.20;99.90;;;3.98;83.39;102590.41;5166975;28;20054;-70
2022/01/26 04:02:17;;;;;;;51.92;14.43;;;4.20;99.90;;;3.99;83.69;102593.91;5166993;28;20057;-70
2022/01/26 04:04:55;;;;;;;50.63;15.23;;;4.20;99.90;;;3.97;83.50;102588.56;5166413;28;20050;-70
2022/01/26 04:07:27;;;;;;;48.40;15.85;;;4.20;99.90;;;3.96;83.61;102589.34;5167081;28;20082;-70
2022/01/26 04:10:01;;;;;;;51.92;14.88;;;4.20;99.90;;;4.01;83.60;102580.34;5167047;28;20057;-70
2022/01/26 04:12:36;;;;;;;54.95;15.75;;;4.20;99.90;;;4.05;83.54;102587.59;5166588;28;20062;-71
2022/01/26 04:15:19;;;;;;;50.80;14.07;;;4.20;99.90;;;4.07;83.36;102575.72;5166467;28;20140;-70
2022/01/26 04:17:51;;;;;;;56.97;15.38;;;4.20;99.90;;;4.08;83.33;102569.78;5166799;28;20411;-70
2022/01/26 04:20:27;;;;;;;56.35;16.35;;;4.30;99.90;;;4.15;83.42;102573.81;5166703;28;20104;-70
2022/01/26 04:23:09;;;;;;;55.33;17.25;;;4.30;99.90;;;4.17;83.10;102573.94;5166520;28;20058;-70
2022/01/26 04:25:43;;;;;;;54.75;15.85;;;4.30;99.90;;;4.19;83.24;102575.03;5166220;28;20137;-71
2022/01/26 04:28:20;;;;;;;51.95;14.45;;;4.40;99.90;;;4.21;83.41;102574.38;5166688;28;20053;-70
2022/01/26 04:30:54;;;;;;;50.00;14.63;;;4.40;99.90;;;4.22;83.19;102578.75;5166303;28;20132;-71
2022/01/26 04:33:26;;;;;;;47.53;14.20;;;4.40;99.90;;;4.23;83.32;102579.66;5166338;28;20056;-71
2022/01/26 04:35:58;;;;;;;52.78;14.48;;;4.40;99.90;;;4.17;83.24;102579.13;5166289;28;20415;-70
2022/01/26 04:38:39;;;;;;;49.33;16.08;;;4.30;99.90;;;4.11;82.98;102576.00;5166138;28;20046;-70
2022/01/26 04:41:24;;;;;;;50.85;14.05;;;4.30;99.90;;;4.07;83.44;102580.91;5166160;28;20592;-71
2022/01/26 04:44:01;;;;;;;51.08;14.68;;;4.30;99.90;;;4.09;83.20;102584.50;5165800;28;20115;-71
2022/01/26 04:46:35;;;;;;;47.85;12.95;;;4.30;99.90;;;4.11;83.48;102578.56;5166324;28;20134;-72
2022/01/26 04:49:06;;;;;;;48.13;13.95;;;4.30;99.90;;;4.12;83.42;102568.41;5166288;28;20065;-71
2022/01/26 04:51:38;;;;;;;50.63;13.63;;;4.30;99.90;;;4.14;83.73;102574.59;5166626;28;20062;-70
2022/01/26 04:54:11;;;;;;;43.35;13.40;;;4.30;99.90;;;4.13;83.43;102579.63;5165689;28;20495;-71
2022/01/26 04:56:43;;;;;;;41.80;12.20;;;4.30;99.90;;;4.07;83.86;102587.72;5165865;28;20057;-70
2022/01/26 04:59:15;;;;;;;44.38;11.52;;;4.30;99.90;;;4.03;84.07;102589.13;5165301;28;20058;-71
2022/01/26 05:01:48;;;;;;;43.55;12.65;;;4.30;99.90;;;4.00;84.19;102578.53;5165889;28;20050;-71
2022/01/26 05:04:20;;;;;;;42.33;12.20;;;4.30;99.90;;;3.97;84.33;102587.66;5165364;28;20082;-70
2022/01/26 05:06:52;;;;;;;48.30;13.35;;;4.20;99.90;;;3.92;84.44;102576.97;5165897;28;20502;-72
2022/01/26 05:09:24;;;;;;;47.30;12.55;;;4.20;99.90;;;3.92;84.73;102584.69;5166093;28;20050;-71
2022/01/26 05:11:57;;;;;;;42.97;12.07;;;4.20;99.90;;;3.92;84.71;102597.59;5165948;28;20137;-70
2022/01/26 05:14:29;;;;;;;43.00;13.38;;;4.20;99.90;;;3.89;84.79;102599.88;5165289;28;20054;-70
2022/01/26 05:17:02;;;;;;;46.45;12.57;;;4.10;99.90;;;3.85;85.10;102602.03;5165338;28;20050;-71
2022/01/26 05:19:34;;;;;;;49.25;12.82;;;4.10;99.90;;;3.78;85.57;102598.94;5166004;28;20398;-70
2022/01/26 05:22:07;;;;;;;52.45;12.60;;;4.10;99.90;;;3.75;85.59;102601.22;5165714;28;20421;-70
2022/01/26 05:24:39;;;;;;;49.67;13.40;;;4.10;99.90;;;3.73;85.78;102612.19;5165064;28;20382;-71
2022/01/26 05:27:11;;;;;;;50.75;13.38;;;4.10;99.90;;;3.73;86.26;102613.09;5165328;28;20057;-70
2022/01/26 05:29:43;;;;;;;53.95;13.93;;;4.10;99.90;;;3.73;85.84;102620.81;5165217;28;20046;-70
2022/01/26 05:32:17;;;;;;;52.13;14.60;;;4.10;99.90;;;3.70;85.80;102622.19;5165626;28;20154;-70
2022/01/26 05:34:49;;;;;;;54.90;14.07;;;4.10;99.90;;;3.69;85.52;102635.88;5164918;28;20046;-70
2022/01/26 05:37:21;;;;;;;53.42;14.63;;;4.10;99.90;;;3.68;85.63;102628.91;5165091;28;20405;-70
2022/01/26 05:39:53;;;;;;;50.60;15.10;;;4.10;99.90;;;3.66;85.75;102635.59;5225614;22;20434;-73
2022/01/26 05:42:25;;;;;;;51.33;13.00;;;4.00;99.90;;;3.68;85.80;102639.22;5183686;28;20057;-73
2022/01/26 05:45:02;;;;;;;56.53;14.52;;;4.10;99.90;;;3.61;85.51;102654.91;5174550;28;20045;-73
2022/01/26 05:47:36;;;;;;;53.45;14.02;;;4.00;99.90;;;3.56;85.92;102669.94;5165323;28;20451;-73
2022/01/26 05:50:09;;;;;;;53.35;15.10;;;4.00;99.90;;;3.58;86.33;102662.34;5165124;28;20054;-72
2022/01/26 05:52:41;;;;;;;56.25;14.40;;;4.00;99.90;;;3.60;86.11;102660.84;5165509;28;20046;-73
2022/01/26 05:55:13;;;;;;;55.75;13.85;;;4.00;99.90;;;3.60;86.05;102660.84;5164753;28;20514;-75
2022/01/26 05:57:45;;;;;;;52.28;13.70;;;4.00;99.90;;;3.65;85.95;102651.81;5164543;28;20057;-73
2022/01/26 06:00:17;;;;;;;45.92;12.95;;;4.00;99.90;;;3.65;86.03;102631.19;5165195;28;20050;-73
2022/01/26 06:02:51;;;;;;;52.40;12.63;;;4.00;99.90;;;3.66;85.85;102635.59;5164986;28;20072;-73
2022/01/26 06:05:23;;;;;;;55.35;15.68;;;4.00;99.90;;;3.66;85.99;102635.59;5164587;28;20046;-73
2022/01/26 06:07:54;;;;;;;51.30;15.07;;;4.00;99.90;;;3.66;86.06;102641.66;5165172;28;20061;-73
2022/01/26 06:10:26;;;;;;;55.35;13.60;;;4.00;99.90;;;3.70;86.04;102640.25;5164259;28;20077;-74
2022/01/26 06:12:59;;;;;;;50.88;14.77;;;4.00;99.90;;;3.70;86.16;102622.19;5164642;28;20161;-73
2022/01/26 06:15:31;;;;;;;51.28;14.73;;;4.00;99.90;;;3.74;85.63;102619.16;5164254;28;20472;-73
2022/01/26 06:18:05;;;;;;;59.60;15.75;;;4.00;99.90;;;3.78;85.46;102611.84;5164878;28;20057;-73
2022/01/26 06:20:38;;;;;;;60.58;16.55;;;4.10;99.90;;;3.77;85.93;102610.00;5164869;28;20050;-73
2022/01/26 06:23:10;;;;;;;59.65;16.30;;;4.00;99.90;;;3.79;85.72;102612.75;5164555;28;20050;-74
2022/01/26 06:25:42;;;;;;;60.80;16.42;;;4.10;99.90;;;3.78;85.72;102618.63;5164334;28;20061;-74
2022/01/26 06:28:16;;;;;;;61.63;15.38;;;4.10;99.90;;;3.73;85.78;102618.25;5164826;28;20442;-72
2022/01/26 06:30:58;;;;;;;59.83;15.50;;;4.00;99.90;;;3.75;86.04;102615.78;5165031;28;20483;-75
2022/01/26 06:33:34;;;;;;;55.47;15.45;;;4.00;99.90;;;3.77;85.93;102609.09;5165063;28;20065;-74
2022/01/26 06:36:06;;;;;;;62.83;17.02;;;4.10;99.90;;;3.80;85.93;102606.81;5165077;28;20047;-74
2022/01/26 06:38:40;;;;;;;60.95;16.05;;;4.10;99.90;;;3.80;85.77;102614.53;5164815;28;20049;-75
2022/01/26 06:41:14;;;;;;;57.22;16.48;;;4.00;99.90;;;3.79;86.04;102610.16;5164839;28;20050;-74
2022/01/26 06:43:49;;;;;;;56.17;16.17;;;4.00;99.90;;;3.75;86.00;102621.88;5165092;28;20399;-73
2022/01/26 06:46:26;;;;;;;59.47;16.90;;;4.00;99.90;;;3.73;86.16;102596.72;5164923;28;20419;-72
2022/01/26 06:49:28;;;;;;;59.72;16.52;;;4.00;99.90;;;3.78;85.94;102591.19;5164581;28;20046;-73
2022/01/26 06:51:57;;;;;;;59.85;17.33;;;4.00;99.90;;;3.75;85.79;102584.84;5164336;28;20444;-74
2022/01/26 06:54:29;;;;;;;63.13;18.20;;;4.00;99.90;;;3.79;85.78;102602.41;5163843;28;20046;-72
2022/01/26 06:57:01;;;;;;;60.35;16.52;;;4.00;99.90;;;3.80;85.46;102617.13;5164234;28;20476;-74
2022/01/26 06:59:33;;;;;;;62.75;15.18;;;4.00;99.90;;;3.75;85.21;102619.28;5164780;28;20050;-74
2022/01/26 07:02:06;;;;;;;65.13;17.40;;;4.00;99.90;;;3.74;85.72;102624.31;5164450;28;20048;-74
2022/01/26 07:04:39;;;;;;;58.90;17.00;;;4.00;99.90;;;3.75;85.50;102616.69;5164126;28;20503;-74
2022/01/26 07:07:27;;;;;;;66.38;18.27;;;4.00;99.90;;;3.77;85.40;102606.50;5164307;28;20081;-74
2022/01/26 07:09:59;;;;;;;61.55;16.10;;;4.00;99.90;;;3.83;85.04;102619.97;5161772;28;20073;-74
2022/01/26 07:12:32;;;;;;;51.95;16.95;;;4.00;99.90;;;3.78;85.18;102616.06;5164541;28;20491;-74
2022/01/26 07:21:22;;;;;;;;;;;3.90;99.90;;;3.60;85.81;102628.22;5122382;29;20548;-71
2022/01/26 07:23:56;;;;;;;50.08;12.43;;;3.90;99.90;;;3.61;85.89;102626.53;5166215;28;19922;-71
2022/01/26 07:26:30;;;;;;;51.92;14.25;;;3.90;99.90;;;3.61;85.65;102636.84;5167978;28;20072;-71
2022/01/26 07:29:08;;;;;;;39.85;12.27;;;3.90;99.90;;;3.75;88.09;102626.13;5168222;28;20468;-70
2022/01/26 07:31:42;;;;;;;50.25;14.70;;;4.00;99.90;;;3.98;86.55;102623.97;5168107;28;20057;-72
2022/01/26 07:34:15;;;;;;;57.22;15.50;;;4.20;99.90;;;4.41;88.32;102624.28;5167667;28;20104;-71
2022/01/26 07:36:51;;;;;;;59.55;16.33;;;4.50;99.90;;;4.81;90.66;102624.41;5167549;28;20054;-70
2022/01/26 07:39:40;;;;;;;54.17;13.85;;;4.90;99.90;;;4.91;86.50;102615.81;5167648;28;20042;-72
2022/01/26 07:42:14;;;;;;;55.67;15.27;;;5.10;99.90;;;5.04;86.02;102623.84;5167594;28;20050;-72
2022/01/26 07:44:48;;;;;;;59.17;16.83;;;5.30;99.90;;;5.00;82.87;102620.84;5167148;28;20689;-70
2022/01/26 07:47:20;;;;;;;49.10;13.93;;;5.30;99.90;;;4.82;81.53;102620.16;5167607;28;20057;-70
2022/01/26 07:49:55;;;;;;;55.90;15.48;;;5.10;99.90;;;4.60;80.85;102627.72;5167910;28;20090;-70
2022/01/26 07:52:33;;;;;;;54.22;15.68;;;5.00;99.90;;;4.43;81.61;102636.56;5167442;28;20050;-72
2022/01/26 07:55:07;;;;;;;53.72;15.20;;;4.80;99.90;;;4.30;81.91;102636.22;5167262;28;20047;-72
2022/01/26 07:57:39;;;;;;;49.30;14.13;;;4.70;99.90;;;4.21;82.29;102635.44;5167219;28;20133;-71
2022/01/26 08:00:13;;;;;;;57.03;15.02;;;4.60;99.90;;;4.15;82.22;102646.09;5167636;28;20414;-71
2022/01/26 08:02:46;;;;;;;51.05;14.55;;;4.50;99.90;;;4.09;82.12;102636.13;5167201;28;20046;-71
2022/01/26 08:05:21;;;;;;;55.30;14.73;;;4.40;99.90;;;4.05;82.27;102639.22;5166624;28;20069;-71
2022/01/26 08:07:55;;;;;;;54.00;15.23;;;4.40;99.90;;;4.00;82.34;102645.63;5167136;28;20046;-70
2022/01/26 08:10:27;;;;;;;57.95;17.15;;;4.30;99.90;;;3.95;82.41;102641.72;5166924;28;20050;-71
2022/01/26 08:12:59;;;;;;;57.35;16.30;;;4.20;99.90;;;3.92;82.72;102637.97;5166954;28;20050;-71
2022/01/26 08:15:31;;;;;;;54.92;15.02;;;4.20;99.90;;;3.90;82.65;102644.66;5166559;28;20430;-70
2022/01/26 08:18:06;;;;;;;54.20;14.85;;;4.10;99.90;;;3.92;82.86;102646.63;5166772;28;20056;-70
2022/01/26 08:20:38;;;;;;;54.85;15.48;;;4.10;99.90;;;3.90;82.45;102658.47;5166780;28;20138;-70
2022/01/26 08:23:11;;;;;;;58.70;15.27;;;4.10;99.90;;;3.85;82.71;102661.38;5167183;28;20397;-70
2022/01/26 08:25:43;;;;;;;26.63;8.50;;;4.10;99.90;;;4.38;94.79;102670.50;5166347;28;20046;-73
2022/01/26 08:28:21;;;;;;;66.72;17.08;;;4.40;99.90;;;5.39;100.00;102670.78;5167024;28;20550;-70
2022/01/26 08:30:53;;;;;;;63.58;16.65;;;5.30;99.90;;;5.37;92.51;102661.09;5166836;28;20141;-70
2022/01/26 08:33:25;;;;;;;62.25;17.20;;;5.70;99.90;;;5.06;86.76;102658.47;5166330;28;20052;-71
2022/01/26 08:35:57;;;;;;;58.65;16.42;;;5.60;99.90;;;4.71;84.14;102641.59;5165754;28;20068;-71
2022/01/26 08:38:31;;;;;;;54.58;16.25;;;5.30;99.90;;;4.46;82.89;102633.34;5166463;28;20051;-71
2022/01/26 08:41:03;;;;;;;64.88;15.23;;;5.00;99.90;;;4.36;82.78;102650.59;5166608;28;20054;-71
2022/01/26 08:43:35;;;;;;;57.78;16.13;;;4.80;99.90;;;4.28;82.92;102659.34;5166748;28;20050;-71
2022/01/26 08:46:07;;;;;;;64.53;18.05;;;4.70;99.90;;;4.16;82.69;102663.41;5165991;28;20050;-71
2022/01/26 08:48:39;;;;;;;62.72;17.40;;;4.50;99.90;;;4.07;83.08;102666.06;5166501;28;20042;-71
2022/01/26 08:51:11;;;;;;;65.35;17.48;;;4.40;99.90;;;4.03;82.99;102665.63;5166458;28;20049;-71
2022/01/26 08:53:45;;;;;;;74.60;20.05;;;4.30;99.90;;;3.96;83.19;102671.03;5166344;28;20076;-70
2022/01/26 08:56:17;;;;;;;62.45;17.13;;;4.30;99.90;;;3.90;83.48;102681.69;5166120;28;20151;-71
2022/01/26 08:58:49;;;;;;;60.17;17.35;;;4.20;99.90;;;3.89;83.59;102669.56;5166519;28;20049;-71
2022/01/26 09:01:22;;;;;;;64.20;16.27;;;4.10;99.90;;;3.87;83.59;102684.00;5166366;28;20555;-71
2022/01/26 09:03:54;;;;;;;60.13;16.23;;;4.10;99.90;;;3.91;84.07;102680.94;5165610;28;20057;-70
2022/01/26 09:06:26;;;;;;;57.20;15.93;;;4.10;99.90;;;3.88;83.45;102665.16;5166091;28;20496;-71
2022/01/26 09:09:04;;;;;;;59.35;16.05;;;4.10;99.90;;;3.88;83.33;102674.59;5166422;28;20431;-71
2022/01/26 09:11:39;;;;;;;60.17;17.23;;;4.10;99.90;;;3.82;83.34;102685.25;5166077;28;20056;-71
2022/01/26 09:14:16;;;;;;;69.35;17.52;;;4.10;99.90;;;3.80;83.25;102703.16;5165503;28;20122;-70
2022/01/26 09:16:52;;;;;;;62.33;15.20;;;4.00;99.90;;;3.77;83.64;102695.13;5165792;28;20050;-71
2022/01/26 09:19:29;;;;;;;57.40;16.38;;;4.00;99.90;;;3.79;83.90;102703.03;5165880;28;20530;-71
2022/01/26 09:22:05;;;;;;;58.70;16.35;;;4.00;99.90;;;3.81;83.80;102688.59;5165702;28;20046;-70
2022/01/26 09:24:41;;;;;;;60.83;15.35;;;4.00;99.90;;;3.88;83.67;102679.75;5175401;28;20045;-71
2022/01/26 09:27:20;;;;;;;59.58;16.30;;;4.10;99.90;;;3.92;83.62;102684.44;5173051;28;20060;-70
2022/01/26 09:29:52;;;;;;;59.08;17.08;;;4.10;99.90;;;3.97;83.99;102686.63;5165369;28;20053;-71
2022/01/26 09:32:24;;;;;;;60.20;17.10;;;4.10;99.90;;;4.04;83.95;102701.94;5183779;28;20042;-70
2022/01/26 09:34:56;;;;;;;62.72;17.08;;;4.20;99.90;;;4.10;83.56;102693.81;5185350;28;20152;-73
2022/01/26 09:37:29;;;;;;;73.30;18.50;;;4.20;99.90;;;4.14;83.72;102700.19;5185812;28;20592;-69
2022/01/26 09:40:04;;;;;;;68.22;17.13;;;4.30;99.90;;;4.17;84.26;102696.19;5185432;28;20050;-68
2022/01/26 09:42:37;;;;;;;64.60;16.75;;;4.30;99.90;;;4.20;84.25;102691.31;5185289;28;20056;-67
2022/01/26 09:45:11;;;;;;;63.72;16.27;;;4.30;99.90;;;4.23;84.19;102701.00;5184554;28;20511;-71
2022/01/26 09:47:45;;;;;;;61.85;16.60;;;4.40;99.90;;;4.26;83.95;102711.63;5185388;28;20054;-70
2022/01/26 09:50:17;;;;;;;66.32;17.00;;;4.40;99.90;;;4.25;83.91;102700.38;5185425;28;20057;-68
2022/01/26 09:52:49;;;;;;;56.47;16.30;;;4.40;99.90;;;4.28;84.01;102690.31;5185743;28;20060;-69
2022/01/26 09:55:23;;;;;;;58.88;15.73;;;4.40;99.90;;;4.29;84.20;102689.56;5185105;28;20058;-70
2022/01/26 09:57:58;;;;;;;58.85;15.93;;;4.40;99.90;;;4.30;84.25;102693.97;5185122;28;20411;-68
2022/01/26 10:00:31;;;;;;;62.70;16.02;;;4.40;99.90;;;4.31;83.81;102700.94;5185499;28;20049;-68
2022/01/26 10:03:05;;;;;;;61.63;16.52;;;4.50;99.90;;;4.32;83.64;102701.84;5185879;28;20535;-69
2022/01/26 10:05:42;;;;;;;61.83;16.48;;;4.40;99.90;;;4.33;83.92;102703.66;5184034;28;20053;-67
2022/01/26 10:08:26;;;;;;;72.00;18.23;;;4.50;99.90;;;4.34;83.94;102698.63;5185090;28;20100;-68
2022/01/26 10:19:43;;;;;;;51.80;14.73;;;4.40;99.90;;;4.27;83.88;102704.00;5173986;28;20046;-68
2022/01/26 10:22:25;;;;;;;62.15;17.02;;;4.40;99.90;;;4.28;84.25;102704.91;5185186;28;20064;-70
2022/01/26 10:25:11;;;;;;;64.68;16.00;;;4.40;99.90;;;4.49;90.29;102706.84;5184346;28;20137;-69
2022/01/26 10:27:47;;;;;;;54.75;15.63;;;4.50;99.90;;;4.53;88.70;102697.69;5184917;28;20057;-70
2022/01/26 10:30:21;;;;;;;58.75;15.93;;;4.70;99.90;;;4.52;87.19;102696.78;5184718;28;20049;-70
2022/01/26 10:32:53;;;;;;;62.65;16.23;;;4.70;99.90;;;4.60;89.46;102690.63;5184335;28;20060;-68
2022/01/26 10:35:25;;;;;;;63.15;15.43;;;4.80;99.90;;;4.57;87.79;102695.53;5184097;28;20052;-68
2022/01/26 10:37:57;;;;;;;62.40;14.27;;;4.80;99.90;;;4.52;87.01;102691.63;5184416;28;20060;-71
2022/01/26 10:40:30;;;;;;;68.07;17.45;;;4.70;99.90;;;4.47;86.88;102682.56;5185010;28;20049;-71
2022/01/26 10:43:09;;;;;;;64.47;16.25;;;4.70;99.90;;;4.43;86.76;102690.78;5185067;28;20483;-70
2022/01/26 10:45:50;;;;;;;65.90;16.77;;;4.60;99.90;;;4.41;86.67;102692.34;5184003;28;20050;-69
2022/01/26 10:48:29;;;;;;;65.82;15.82;;;4.60;99.90;;;4.40;86.82;102695.69;5184523;28;20046;-70
2022/01/26 10:54:11;;;;;;;40.47;10.05;;;4.50;99.90;;;4.74;95.40;102684.09;5184403;28;20068;-70
2022/01/26 10:56:43;;;;;;;67.00;17.35;;;4.70;99.90;;;5.12;97.40;102679.69;5184317;28;20050;-71
2022/01/26 10:59:16;;;;;;;71.07;17.77;;;5.20;99.90;;;5.00;93.63;102676.03;5188603;28;20132;-71
2022/01/26 11:01:48;;;;;;;70.80;16.27;;;5.20;99.90;;;4.84;91.30;102675.47;5188390;28;20213;-70
2022/01/26 11:04:21;;;;;;;65.03;16.52;;;5.20;99.90;;;4.71;90.07;102672.59;5188161;28;20054;-70
2022/01/26 11:06:54;;;;;;;66.55;16.10;;;5.00;99.90;;;4.61;89.82;102674.34;5188543;28;20140;-67
2022/01/26 11:09:30;;;;;;;73.03;16.23;;;4.90;99.90;;;4.54;89.66;102669.41;5188269;28;20046;-69
2022/01/26 11:12:05;;;;;;;73.00;17.17;;;4.80;99.90;;;4.49;89.40;102654.28;5188694;28;20495;-73
2022/01/26 11:14:45;;;;;;;68.07;17.30;;;4.70;99.90;;;4.45;89.57;102650.53;5188068;28;20050;-66
2022/01/26 11:17:27;;;;;;;68.25;16.73;;;4.60;99.90;;;4.41;89.29;102650.13;5188371;28;20045;-70
2022/01/26 11:20:02;;;;;;;64.50;17.10;;;4.60;99.90;;;4.40;89.50;102656.94;5188164;28;20154;-70
2022/01/26 11:22:34;;;;;;;61.25;15.15;;;4.50;99.90;;;4.38;89.51;102655.91;5188308;28;20053;-71
2022/01/26 11:25:12;;;;;;;72.45;15.25;;;4.50;99.90;;;4.38;89.05;102671.41;5188103;28;20049;-72
2022/01/26 11:27:44;;;;;;;62.60;14.73;;;4.50;99.90;;;4.37;89.47;102669.59;5187895;28;20133;-70
2022/01/26 11:30:25;;;;;;;59.90;14.73;;;4.50;99.90;;;4.37;89.14;102654.13;5167782;28;20126;-71
2022/01/26 11:33:00;;;;;;;67.97;15.70;;;4.50;99.90;;;4.37;88.84;102654.13;5167812;28;20506;-71
2022/01/26 11:35:36;;;;;;;64.18;16.23;;;4.50;99.90;;;4.35;88.88;102655.63;5167055;28;20042;-71
2022/01/26 11:38:29;;;;;;;59.85;14.60;;;4.50;99.90;;;4.34;88.94;102659.91;5167808;28;20052;-72
2022/01/26 11:47:09;;;;;;;53.63;14.85;;;4.50;99.90;;;4.38;88.92;102674.00;5245685;23;20132;-82
2022/01/26 11:49:43;;;;;;;53.95;14.25;;;4.50;99.90;;;4.41;88.95;102682.00;5214273;28;20049;-82
2022/01/26 11:52:23;;;;;;;61.90;17.08;;;4.50;99.90;;;4.42;89.18;102672.56;5236235;28;20049;-83
2022/01/26 11:54:58;;;;;;;56.63;13.38;;;4.50;99.90;;;4.41;88.66;102689.75;5236214;28;20052;-83